createdAt,value
2018-08-19T00:00:36.283Z,22.27
2018-08-19T00:03:07.525Z,8.20
2018-08-19T00:05:39.884Z,7.77
2018-08-19T00:08:11.744Z,7.77
2018-08-19T00:10:52.564Z,9.20
2018-08-19T00:13:24.783Z,8.23
2018-08-19T00:15:56.404Z,8.90
2018-08-19T00:18:28.444Z,8.07
2018-08-19T00:21:00.643Z,7.17
2018-08-19T00:23:38.105Z,7.73
2018-08-19T00:26:11.084Z,7.30
2018-08-19T00:28:42.804Z,7.70
2018-08-19T00:31:14.743Z,7.50
2018-08-19T00:33:47.443Z,7.80
2018-08-19T00:36:32.063Z,7.83
2018-08-19T00:39:04.204Z,8.07
2018-08-19T00:41:35.744Z,8.37
2018-08-19T00:44:08.144Z,8.00
2018-08-19T00:46:40.724Z,8.23
2018-08-19T00:49:12.703Z,8.87
2018-08-19T00:51:49.684Z,7.93
2018-08-19T00:54:22.064Z,7.70
2018-08-19T00:56:56.563Z,8.57
2018-08-19T00:59:30.724Z,8.50
2018-08-19T01:02:02.724Z,10.30
2018-08-19T01:04:34.384Z,10.33
2018-08-19T01:07:06.724Z,9.00
2018-08-19T01:09:39.684Z,9.50
2018-08-19T01:12:11.364Z,10.43
2018-08-19T01:14:43.084Z,8.77
2018-08-19T01:17:14.627Z,9.23
2018-08-19T01:19:48.006Z,10.83
2018-08-19T01:22:20.304Z,11.63
2018-08-19T01:24:52.764Z,12.00
2018-08-19T01:27:24.824Z,14.73
2018-08-19T01:29:57.444Z,23.57
2018-08-19T01:32:29.123Z,19.00
2018-08-19T01:35:01.725Z,21.60
2018-08-19T01:37:34.424Z,17.80
2018-08-19T01:40:06.584Z,13.00
2018-08-19T01:42:38.926Z,11.50
2018-08-19T01:45:12.504Z,11.13
2018-08-19T01:47:44.747Z,12.07
2018-08-19T01:50:17.543Z,10.60
2018-08-19T01:52:51.545Z,10.73
2018-08-19T01:55:23.823Z,10.67
2018-08-19T01:57:57.184Z,9.73
2018-08-19T02:00:29.943Z,10.07
2018-08-19T02:03:06.564Z,9.83
2018-08-19T02:05:38.623Z,9.77
2018-08-19T02:08:11.284Z,11.40
2018-08-19T02:10:43.084Z,10.10
2018-08-19T02:13:15.424Z,11.57
2018-08-19T02:15:47.184Z,10.70
2018-08-19T02:18:19.684Z,12.40
2018-08-19T02:20:51.344Z,10.70
2018-08-19T02:23:23.025Z,11.27
2018-08-19T02:25:55.444Z,12.30
2018-08-19T02:28:27.684Z,9.70
2018-08-19T02:31:02.224Z,9.63
2018-08-19T02:33:36.364Z,10.90
2018-08-19T02:36:08.904Z,10.50
2018-08-19T02:38:40.184Z,9.10
2018-08-19T02:41:11.733Z,10.50
2018-08-19T02:44:00.484Z,11.10
2018-08-19T02:46:32.464Z,10.63
2018-08-19T02:49:05.044Z,10.57
2018-08-19T02:51:36.884Z,11.10
2018-08-19T02:54:08.927Z,11.47
2018-08-19T02:56:40.884Z,10.40
2018-08-19T02:59:13.103Z,11.10
2018-08-19T03:01:44.284Z,12.50
2018-08-19T03:04:16.144Z,11.77
2018-08-19T03:06:48.224Z,11.40
2018-08-19T03:09:20.045Z,11.40
2018-08-19T03:12:10.604Z,12.10
2018-08-19T03:14:42.824Z,9.73
2018-08-19T03:17:15.143Z,11.00
2018-08-19T03:19:47.564Z,9.60
2018-08-19T03:22:19.244Z,9.83
2018-08-19T03:24:51.704Z,10.27
2018-08-19T03:27:24.004Z,10.43
2018-08-19T03:30:00.484Z,10.20
2018-08-19T03:32:31.824Z,11.07
2018-08-19T03:35:20.943Z,11.90
2018-08-19T03:37:55.704Z,11.77
2018-08-19T03:40:28.424Z,11.27
2018-08-19T03:43:01.185Z,11.13
2018-08-19T03:45:33.465Z,10.80
2018-08-19T03:48:05.364Z,10.60
2018-08-19T03:50:39.304Z,10.80
2018-08-19T03:53:10.665Z,11.27
2018-08-19T03:55:42.343Z,11.70
2018-08-19T03:58:15.344Z,11.23
2018-08-19T04:00:47.404Z,11.30
2018-08-19T04:03:23.424Z,10.27
2018-08-19T04:06:01.343Z,10.77
2018-08-19T04:08:37.943Z,9.43
2018-08-19T04:11:10.544Z,10.67
2018-08-19T04:13:42.646Z,9.47
2018-08-19T04:16:13.925Z,9.67
2018-08-19T04:18:47.366Z,9.53
2018-08-19T04:21:19.866Z,9.60
2018-08-19T04:23:51.704Z,9.80
2018-08-19T04:26:24.003Z,10.80
2018-08-19T04:28:56.583Z,12.20
2018-08-19T04:31:27.891Z,12.23
2018-08-19T04:34:00.144Z,12.20
2018-08-19T04:36:31.963Z,12.23
2018-08-19T04:39:03.844Z,12.23
2018-08-19T04:41:35.823Z,10.90
2018-08-19T04:44:07.684Z,9.47
2018-08-19T04:46:39.323Z,9.83
2018-08-19T04:49:11.204Z,9.60
2018-08-19T04:51:43.283Z,10.20
2018-08-19T04:54:15.563Z,10.20
2018-08-19T04:56:48.125Z,10.43
2018-08-19T04:59:20.123Z,10.30
2018-08-19T05:01:52.184Z,10.77
2018-08-19T05:04:24.744Z,10.37
2018-08-19T05:06:56.504Z,11.30
2018-08-19T05:09:28.343Z,10.47
2018-08-19T05:12:00.104Z,9.97
2018-08-19T05:14:32.143Z,10.20
2018-08-19T05:17:03.687Z,9.50
2018-08-19T05:19:36.363Z,9.87
2018-08-19T05:22:13.706Z,10.97
2018-08-19T05:24:46.784Z,11.40
2018-08-19T05:27:19.003Z,11.70
2018-08-19T05:29:51.123Z,9.87
2018-08-19T05:32:22.804Z,11.03
2018-08-19T05:34:55.143Z,11.90
2018-08-19T05:37:27.964Z,10.83
2018-08-19T05:40:01.827Z,9.50
2018-08-19T05:42:33.664Z,10.37
2018-08-19T05:45:05.450Z,12.43
2018-08-19T05:47:37.683Z,12.17
2018-08-19T05:50:09.444Z,11.33
2018-08-19T05:52:41.664Z,11.53
2018-08-19T05:55:13.787Z,11.23
2018-08-19T05:57:46.084Z,11.57
2018-08-19T06:00:22.964Z,13.20
2018-08-19T06:02:57.104Z,11.40
2018-08-19T06:05:29.064Z,10.80
2018-08-19T06:08:05.604Z,10.70
2018-08-19T06:10:38.064Z,11.00
2018-08-19T06:13:09.645Z,11.60
2018-08-19T06:15:41.708Z,11.03
2018-08-19T06:18:13.285Z,11.40
2018-08-19T06:20:45.643Z,11.10
2018-08-19T06:23:17.884Z,11.10
2018-08-19T06:25:49.884Z,11.53
2018-08-19T06:28:22.863Z,12.90
2018-08-19T06:30:55.212Z,10.90
2018-08-19T06:33:27.203Z,11.27
2018-08-19T06:35:59.544Z,11.00
2018-08-19T06:38:32.303Z,11.47
2018-08-19T06:41:04.063Z,12.20
2018-08-19T06:43:36.004Z,13.10
2018-08-19T06:46:08.103Z,12.13
2018-08-19T06:48:41.204Z,12.67
2018-08-19T06:51:13.450Z,12.20
2018-08-19T06:53:45.324Z,12.60
2018-08-19T06:56:17.643Z,12.00
2018-08-19T06:58:49.944Z,12.97
2018-08-19T07:01:22.044Z,12.60
2018-08-19T07:03:56.628Z,12.03
2018-08-19T07:06:28.504Z,13.80
2018-08-19T07:09:01.184Z,12.80
2018-08-19T07:11:33.044Z,13.53
2018-08-19T07:14:05.724Z,13.20
2018-08-19T07:16:38.165Z,14.13
2018-08-19T07:19:10.464Z,12.20
2018-08-19T07:21:42.364Z,14.60
2018-08-19T07:24:14.824Z,11.50
2018-08-19T07:26:46.227Z,11.47
2018-08-19T07:29:18.464Z,12.30
2018-08-19T07:31:50.231Z,12.20
2018-08-19T07:34:22.344Z,12.23
2018-08-19T07:36:54.625Z,11.77
2018-08-19T07:39:27.324Z,11.93
2018-08-19T07:42:00.091Z,11.60
2018-08-19T07:44:31.964Z,11.70
2018-08-19T07:47:03.824Z,41.23
2018-08-19T07:49:35.326Z,13.00
2018-08-19T07:52:07.650Z,11.20
2018-08-19T07:54:40.384Z,10.73
2018-08-19T07:57:22.965Z,12.03
2018-08-19T07:59:54.864Z,15.47
2018-08-19T08:02:32.538Z,10.90
2018-08-19T08:05:05.465Z,10.90
2018-08-19T08:07:37.484Z,10.30
2018-08-19T08:10:10.064Z,9.17
2018-08-19T08:12:41.705Z,10.50
2018-08-19T08:15:14.488Z,14.23
2018-08-19T08:17:45.664Z,11.00
2018-08-19T08:20:18.124Z,10.60
2018-08-19T08:22:50.303Z,11.43
2018-08-19T08:25:22.244Z,11.43
2018-08-19T08:27:54.664Z,10.43
2018-08-19T08:30:26.404Z,10.70
2018-08-19T08:32:58.304Z,11.10
2018-08-19T08:35:30.323Z,11.77
2018-08-19T08:38:02.484Z,11.87
2018-08-19T08:40:35.316Z,11.90
2018-08-19T08:43:07.343Z,12.27
2018-08-19T08:45:41.305Z,11.60
2018-08-19T08:48:13.566Z,13.40
2018-08-19T08:50:45.804Z,14.27
2018-08-19T08:53:17.654Z,14.60
2018-08-19T08:55:49.424Z,15.60
2018-08-19T08:58:20.784Z,14.67
2018-08-19T09:00:52.625Z,14.17
2018-08-19T09:03:24.384Z,15.77
2018-08-19T09:05:56.685Z,16.70
2018-08-19T09:08:28.644Z,16.33
2018-08-19T09:11:01.584Z,16.10
2018-08-19T09:13:33.885Z,17.30
2018-08-19T09:16:05.944Z,17.63
2018-08-19T09:18:38.084Z,18.20
2018-08-19T09:21:10.605Z,17.60
2018-08-19T09:23:41.869Z,18.53
2018-08-19T09:26:14.465Z,17.40
2018-08-19T09:28:46.366Z,18.27
2018-08-19T09:31:18.424Z,17.50
2018-08-19T09:33:50.384Z,18.03
2018-08-19T09:36:22.685Z,17.53
2018-08-19T09:38:54.104Z,17.90
2018-08-19T09:41:26.544Z,16.30
2018-08-19T09:43:58.164Z,17.67
2018-08-19T09:46:30.865Z,17.93
2018-08-19T09:49:02.644Z,14.43
2018-08-19T09:51:33.864Z,15.70
2018-08-19T09:54:06.206Z,17.13
2018-08-19T09:56:40.484Z,15.20
2018-08-19T09:59:13.664Z,14.90
2018-08-19T10:01:48.124Z,15.20
2018-08-19T10:04:23.785Z,15.80
2018-08-19T10:07:01.285Z,14.87
2018-08-19T10:09:32.964Z,13.50
2018-08-19T10:12:05.993Z,14.67
2018-08-19T10:14:38.244Z,14.47
2018-08-19T10:17:10.844Z,14.30
2018-08-19T10:19:42.544Z,13.00
2018-08-19T10:22:14.304Z,13.70
2018-08-19T10:24:46.044Z,13.90
2018-08-19T10:27:18.544Z,15.43
2018-08-19T10:29:51.385Z,12.77
2018-08-19T10:32:24.544Z,12.60
2018-08-19T10:34:56.204Z,13.27
2018-08-19T10:37:28.524Z,11.73
2018-08-19T10:40:01.287Z,12.13
2018-08-19T10:42:32.904Z,12.17
2018-08-19T10:45:12.484Z,12.30
2018-08-19T10:47:44.444Z,13.00
2018-08-19T10:50:17.045Z,12.07
2018-08-19T10:52:49.585Z,11.67
2018-08-19T10:55:21.104Z,11.20
2018-08-19T10:57:53.664Z,10.27
2018-08-19T11:00:30.167Z,10.37
2018-08-19T11:03:19.026Z,12.60
2018-08-19T11:05:51.923Z,11.93
2018-08-19T11:08:24.264Z,11.60
2018-08-19T11:10:56.265Z,11.60
2018-08-19T11:13:28.535Z,12.47
2018-08-19T11:16:00.389Z,11.30
2018-08-19T11:18:41.404Z,16.43
2018-08-19T11:21:48.365Z,14.20
2018-08-19T11:24:27.263Z,14.70
2018-08-19T11:27:03.824Z,13.20
2018-08-19T11:29:41.284Z,12.20
2018-08-19T11:32:13.925Z,12.30
2018-08-19T11:34:45.826Z,12.60
2018-08-19T11:37:17.744Z,12.17
2018-08-19T11:39:50.144Z,12.77
2018-08-19T11:42:21.604Z,11.93
2018-08-19T11:44:53.765Z,11.83
2018-08-19T11:47:25.646Z,12.57
2018-08-19T11:49:57.504Z,11.70
2018-08-19T11:52:29.604Z,10.23
2018-08-19T11:55:02.544Z,9.80
2018-08-19T11:57:35.105Z,11.87
2018-08-19T12:00:06.885Z,9.83
2018-08-19T12:02:38.805Z,9.83
2018-08-19T12:05:12.844Z,9.63
2018-08-19T12:07:47.145Z,10.27
2018-08-19T12:10:19.585Z,9.93
2018-08-19T12:12:51.384Z,9.83
2018-08-19T12:15:24.265Z,10.60
2018-08-19T12:17:55.784Z,9.70
2018-08-19T12:20:35.085Z,9.17
2018-08-19T12:23:07.245Z,11.10
2018-08-19T12:25:39.725Z,9.90
2018-08-19T12:28:12.185Z,9.30
2018-08-19T12:30:43.909Z,10.27
2018-08-19T12:33:28.425Z,9.70
2018-08-19T12:36:00.426Z,9.37
2018-08-19T12:38:32.645Z,9.20
2018-08-19T12:41:06.404Z,8.63
2018-08-19T12:43:39.025Z,9.80
2018-08-19T12:46:11.767Z,9.40
2018-08-19T12:48:43.625Z,11.30
2018-08-19T12:51:15.477Z,10.13
2018-08-19T12:53:47.324Z,10.10
2018-08-19T12:56:19.588Z,10.27
2018-08-19T12:58:52.345Z,10.17
2018-08-19T13:01:24.264Z,9.30
2018-08-19T13:03:56.593Z,9.73
2018-08-19T13:06:29.484Z,11.03
2018-08-19T13:09:01.269Z,9.77
2018-08-19T13:11:33.505Z,9.10
2018-08-19T13:14:05.991Z,9.97
2018-08-19T13:16:37.723Z,10.03
2018-08-19T13:19:09.884Z,9.97
2018-08-19T13:21:41.928Z,10.90
2018-08-19T13:24:14.606Z,9.90
2018-08-19T13:26:46.244Z,9.73
2018-08-19T13:29:18.267Z,10.40
2018-08-19T13:31:51.305Z,10.90
2018-08-19T13:34:22.884Z,10.47
2018-08-19T13:36:56.165Z,11.13
2018-08-19T13:39:29.065Z,10.37
2018-08-19T13:42:00.165Z,10.30
2018-08-19T13:44:32.144Z,10.90
2018-08-19T13:47:03.755Z,12.73
2018-08-19T13:49:36.288Z,10.43
2018-08-19T13:52:08.925Z,10.40
2018-08-19T13:54:55.045Z,11.70
2018-08-19T13:57:28.385Z,11.07
2018-08-19T14:00:00.245Z,11.30
2018-08-19T14:02:32.266Z,11.70
2018-08-19T14:05:05.124Z,13.47
2018-08-19T14:07:36.844Z,12.10
2018-08-19T14:10:09.526Z,11.57
2018-08-19T14:12:41.169Z,11.50
2018-08-19T14:15:12.865Z,11.10
2018-08-19T14:17:45.304Z,11.90
2018-08-19T14:20:17.125Z,11.23
2018-08-19T14:22:49.804Z,12.33
2018-08-19T14:25:22.384Z,12.20
2018-08-19T14:27:54.264Z,12.00
2018-08-19T14:30:26.240Z,15.33
2018-08-19T14:32:58.964Z,12.60
2018-08-19T14:35:30.704Z,12.50
2018-08-19T14:38:03.945Z,12.87
2018-08-19T14:40:36.264Z,11.67
2018-08-19T14:43:07.684Z,12.77
2018-08-19T14:45:39.466Z,13.77
2018-08-19T14:48:11.845Z,13.30
2018-08-19T14:50:45.544Z,11.70
2018-08-19T14:53:17.546Z,12.87
2018-08-19T14:55:49.104Z,12.70
2018-08-19T14:58:20.964Z,12.00
2018-08-19T15:00:53.984Z,14.43
2018-08-19T15:03:26.103Z,12.57
2018-08-19T15:06:04.627Z,12.80
2018-08-19T15:08:37.964Z,12.57
2018-08-19T15:11:09.784Z,13.00
2018-08-19T15:13:41.152Z,17.33
2018-08-19T15:16:13.485Z,12.50
2018-08-19T15:18:45.865Z,14.37
2018-08-19T15:21:17.864Z,14.23
2018-08-19T15:23:49.824Z,12.60
2018-08-19T15:26:22.064Z,13.50
2018-08-19T15:28:54.244Z,12.73
2018-08-19T15:31:28.024Z,12.33
2018-08-19T15:34:00.224Z,12.67
2018-08-19T15:36:31.507Z,12.87
2018-08-19T15:39:04.004Z,12.10
2018-08-19T15:41:36.164Z,12.30
2018-08-19T15:44:08.465Z,12.33
2018-08-19T15:46:40.924Z,11.40
2018-08-19T15:49:12.645Z,12.17
2018-08-19T15:51:43.752Z,12.37
2018-08-19T15:54:15.385Z,12.00
2018-08-19T15:56:47.204Z,11.53
2018-08-19T15:59:19.504Z,12.50
2018-08-19T16:01:52.384Z,11.90
2018-08-19T16:04:24.604Z,12.57
2018-08-19T16:06:57.384Z,11.77
2018-08-19T16:09:29.984Z,12.20
2018-08-19T16:12:02.121Z,11.90
2018-08-19T16:14:34.005Z,12.30
2018-08-19T16:17:05.845Z,11.67
2018-08-19T16:19:38.045Z,12.63
2018-08-19T16:22:10.604Z,11.93
2018-08-19T16:24:42.244Z,11.53
2018-08-19T16:27:14.204Z,11.63
2018-08-19T16:29:47.784Z,10.70
2018-08-19T16:32:19.350Z,11.10
2018-08-19T16:34:51.925Z,11.40
2018-08-19T16:37:23.690Z,11.70
2018-08-19T16:39:55.585Z,10.70
2018-08-19T16:42:27.507Z,10.40
2018-08-19T16:45:00.006Z,11.50
2018-08-19T16:47:31.724Z,10.00
2018-08-19T16:50:03.691Z,9.87
2018-08-19T16:52:36.124Z,10.97
2018-08-19T16:55:07.764Z,10.67
2018-08-19T16:57:39.345Z,10.03
2018-08-19T17:00:11.844Z,10.20
2018-08-19T17:02:43.915Z,9.97
2018-08-19T17:05:28.504Z,10.70
2018-08-19T17:08:00.524Z,10.30
2018-08-19T17:10:33.126Z,10.70
2018-08-19T17:13:04.944Z,11.00
2018-08-19T17:15:37.145Z,10.70
2018-08-19T17:18:09.824Z,9.23
2018-08-19T17:20:42.084Z,11.20
2018-08-19T17:23:14.086Z,10.03
2018-08-19T17:25:47.304Z,10.57
2018-08-19T17:28:20.164Z,10.33
2018-08-19T17:30:53.926Z,10.80
2018-08-19T17:33:29.924Z,10.47
2018-08-19T17:36:01.726Z,10.50
2018-08-19T17:38:35.484Z,11.33
2018-08-19T17:41:08.004Z,11.60
2018-08-19T17:43:44.385Z,10.30
2018-08-19T17:46:17.184Z,16.30
2018-08-19T17:48:49.124Z,11.63
2018-08-19T17:51:30.833Z,10.13
2018-08-19T17:54:03.186Z,10.70
2018-08-19T17:56:35.905Z,11.20
2018-08-19T17:59:08.370Z,11.13
2018-08-19T18:01:44.824Z,10.70
2018-08-19T18:04:16.704Z,11.60
2018-08-19T18:06:49.364Z,14.73
2018-08-19T18:09:21.667Z,14.80
2018-08-19T18:12:01.344Z,11.00
2018-08-19T18:14:34.724Z,11.60
2018-08-19T18:17:07.344Z,11.37
2018-08-19T18:19:39.584Z,13.57
2018-08-19T18:22:11.364Z,13.47
2018-08-19T18:24:44.644Z,10.53
2018-08-19T18:27:16.384Z,12.10
2018-08-19T18:29:48.704Z,10.20
2018-08-19T18:32:21.184Z,12.63
2018-08-19T18:34:53.064Z,10.87
2018-08-19T18:37:25.424Z,11.00
2018-08-19T18:39:58.164Z,10.70
2018-08-19T18:42:40.484Z,10.77
2018-08-19T18:45:14.024Z,11.33
2018-08-19T18:47:52.324Z,10.80
2018-08-19T18:50:26.144Z,11.33
2018-08-19T18:52:57.444Z,11.70
2018-08-19T18:55:29.785Z,11.80
2018-08-19T18:58:02.705Z,11.20
2018-08-19T19:00:34.405Z,12.20
2018-08-19T19:03:06.284Z,11.20
2018-08-19T19:05:41.924Z,11.80
2018-08-19T19:08:16.843Z,10.80
2018-08-19T19:10:56.784Z,10.63
2018-08-19T19:13:28.783Z,9.57
2018-08-19T19:16:00.624Z,14.70
2018-08-19T19:18:33.443Z,9.93
2018-08-19T19:21:06.346Z,9.50
2018-08-19T19:23:41.204Z,9.00
2018-08-19T19:26:13.563Z,9.57
2018-08-19T19:28:46.824Z,8.77
2018-08-19T19:31:19.424Z,8.50
2018-08-19T19:33:51.644Z,8.43
2018-08-19T19:36:24.025Z,7.80
2018-08-19T19:38:58.646Z,7.63
2018-08-19T19:41:32.985Z,8.43
2018-08-19T19:44:22.505Z,7.90
2018-08-19T19:46:55.403Z,10.20
2018-08-19T19:49:28.465Z,8.37
2018-08-19T19:52:01.007Z,7.53
2018-08-19T19:54:33.404Z,7.77
2018-08-19T19:57:05.665Z,7.70
2018-08-19T19:59:36.884Z,8.13
2018-08-19T20:02:10.404Z,7.67
2018-08-19T20:04:43.444Z,8.10
2018-08-19T20:07:17.064Z,8.30
2018-08-19T20:09:49.465Z,7.53
2018-08-19T20:12:30.361Z,7.97
2018-08-19T20:15:03.425Z,8.70
2018-08-19T20:17:35.324Z,8.63
2018-08-19T20:20:07.184Z,8.53
2018-08-19T20:22:39.545Z,9.03
2018-08-19T20:25:11.744Z,13.83
2018-08-19T20:27:44.028Z,9.00
2018-08-19T20:30:16.385Z,8.40
2018-08-19T20:32:48.561Z,9.17
2018-08-19T20:35:20.604Z,10.00
2018-08-19T20:37:52.524Z,10.40
2018-08-19T20:40:24.565Z,9.93
2018-08-19T20:42:56.644Z,8.87
2018-08-19T20:45:28.204Z,9.10
2018-08-19T20:48:00.866Z,8.97
2018-08-19T20:50:33.105Z,9.50
2018-08-19T20:53:05.145Z,9.67
2018-08-19T20:55:37.789Z,8.37
2018-08-19T20:58:10.625Z,11.63
2018-08-19T21:00:42.466Z,9.60
2018-08-19T21:03:14.285Z,9.30
2018-08-19T21:05:46.286Z,9.63
2018-08-19T21:08:19.724Z,9.20
2018-08-19T21:10:52.225Z,10.33
2018-08-19T21:13:23.864Z,9.27
2018-08-19T21:15:57.224Z,10.90
2018-08-19T21:18:29.804Z,9.80
2018-08-19T21:21:02.645Z,9.73
2018-08-19T21:23:34.304Z,9.97
2018-08-19T21:26:06.485Z,10.53
2018-08-19T21:28:38.944Z,9.40
2018-08-19T21:31:10.904Z,9.70
2018-08-19T21:33:43.325Z,9.80
2018-08-19T21:36:14.724Z,8.93
2018-08-19T21:38:46.697Z,8.07
2018-08-19T21:41:18.404Z,8.93
2018-08-19T21:43:50.924Z,8.47
2018-08-19T21:46:22.464Z,8.57
2018-08-19T21:48:54.264Z,8.57
2018-08-19T21:51:26.425Z,8.50
2018-08-19T21:53:58.684Z,8.83
2018-08-19T21:56:31.247Z,8.43
2018-08-19T21:59:03.825Z,8.10
2018-08-19T22:01:36.104Z,8.83
2018-08-19T22:04:09.124Z,8.60
2018-08-19T22:06:41.304Z,7.63
2018-08-19T22:09:27.424Z,8.10
2018-08-19T22:12:00.783Z,8.70
2018-08-19T22:14:32.883Z,8.73
2018-08-19T22:17:09.943Z,7.80
2018-08-19T22:19:42.900Z,8.33
2018-08-19T22:22:14.764Z,8.33
2018-08-19T22:24:46.426Z,8.00
2018-08-19T22:27:19.643Z,7.87
2018-08-19T22:29:53.444Z,8.23
2018-08-19T22:32:25.984Z,8.87
2018-08-19T22:34:57.604Z,8.50
2018-08-19T22:37:30.104Z,7.50
2018-08-19T22:40:02.655Z,7.53
2018-08-19T22:42:34.243Z,7.57
2018-08-19T22:45:06.364Z,8.13
2018-08-19T22:47:38.283Z,7.53
2018-08-19T22:50:10.943Z,7.20
2018-08-19T22:52:43.203Z,8.00
2018-08-19T22:55:15.386Z,7.33
2018-08-19T22:57:47.183Z,8.23
2018-08-19T23:00:26.343Z,8.07
2018-08-19T23:02:58.823Z,8.40
2018-08-19T23:05:29.903Z,7.70
2018-08-19T23:08:02.283Z,7.00
2018-08-19T23:10:33.923Z,9.70
2018-08-19T23:14:14.223Z,7.70
2018-08-19T23:16:46.003Z,8.27
2018-08-19T23:19:19.483Z,7.77
2018-08-19T23:21:52.803Z,8.33
2018-08-19T23:24:24.143Z,7.73
2018-08-19T23:26:56.184Z,7.93
2018-08-19T23:29:28.624Z,8.00
2018-08-19T23:32:00.283Z,8.10
2018-08-19T23:34:32.383Z,8.20
2018-08-19T23:37:04.164Z,7.87
2018-08-19T23:39:36.483Z,8.60
2018-08-19T23:42:08.444Z,7.90
2018-08-19T23:44:40.384Z,8.00
2018-08-19T23:47:12.703Z,7.20
2018-08-19T23:49:44.486Z,8.30
2018-08-19T23:52:15.563Z,8.17
2018-08-19T23:54:47.403Z,8.03
2018-08-19T23:57:20.124Z,7.93
2018-08-19T23:59:51.107Z,8.60
